Flugplatz Strausberg

Für EDAY sind keine METAR/TAF Berichte vorhanden.
Es werden die Flugwettermeldungen vom Flugplatz Berlin-Schönefeld International in 34 km Entfernung angezeigt.

Bericht für EDDB

vom 30.09. um 20:20 UTC

Wind 4 kt aus 180°

Sichtweite 10 km oder mehr

gute Sicht, keine Wolken < 5000 ft, keine CB, keine Wettererscheinungen (CAVOK)

Temperatur 9.0°C

Taupunkt 6.0°C

Luftfeuchtigkeit 81%

Luftdruck 1011 hPa

keine wesentliche Wetteränderung innerhalb den nächsten 2 Stunden zu erwarten

EDDB 302020Z AUTO 18004KT CAVOK 09/06 Q1011 NOSIG

Prognose für EDDB

vom 30.09. um 17:00 UTC

Zwischen 18:00 UTC und 02:00 UTC

Wind 4 kt aus 160°

Sichtweite 10 km oder mehr

keine signifikanten Wettererscheinungen

keine Wolken


Am 01.10. zwischen 02:00 und 04:00 UTC übergehend zu

Wind 9 kt aus 180°

Sichtweite 10 km oder mehr

keine signifikanten Wettererscheinungen

keine Wolken


Am 01.10. zwischen 09:00 und 11:00 UTC übergehend zu

Wind 15 kt aus 200° in Böen 25 kt

Sichtweite 10 km oder mehr

Regen

keine Wolken


Am 01.10. zwischen 11:00 und 14:00 UTC übergehend zu

Wind 15 kt aus 200° in Böen 25 kt

Sichtweite 10 km oder mehr

keine signifikanten Wettererscheinungen

keine Wolken

TAF EDDB 301700Z 3018/0118 16004KT CAVOK BECMG 0102/0104 18009KT BECMG 0109/0111 20015G25KT RA BECMG 0111/0114 NSW
Impressum